createdAt,value
2019-03-18T00:01:20.774Z,5.06
2019-03-18T00:03:50.271Z,5.03
2019-03-18T00:06:19.584Z,5.04
2019-03-18T00:08:48.932Z,4.97
2019-03-18T00:11:18.237Z,5.11
2019-03-18T00:25:05.182Z,4.94
2019-03-18T00:31:00.024Z,5.01
2019-03-18T00:33:37.684Z,5.13
2019-03-18T00:36:29.951Z,5.16
2019-03-18T00:38:59.335Z,5.20
2019-03-18T00:41:28.684Z,5.07
2019-03-18T00:43:57.998Z,4.94
2019-03-18T00:46:27.336Z,4.82
2019-03-18T00:48:56.720Z,4.89
2019-03-18T00:51:25.970Z,4.99
2019-03-18T00:53:55.689Z,5.10
2019-03-18T00:56:25.068Z,5.01
2019-03-18T00:58:54.423Z,5.08
2019-03-18T01:01:23.779Z,4.79
2019-03-18T01:03:53.178Z,4.74
2019-03-18T01:06:22.599Z,4.85
2019-03-18T01:08:52.140Z,4.98
2019-03-18T01:11:21.676Z,4.75
2019-03-18T01:13:51.008Z,4.78
2019-03-18T01:16:20.243Z,4.83
2019-03-18T01:18:49.640Z,4.82
2019-03-18T01:21:19.010Z,4.74
2019-03-18T01:23:48.374Z,4.78
2019-03-18T01:26:17.683Z,4.63
2019-03-18T01:28:47.613Z,4.61
2019-03-18T01:31:17.061Z,4.64
2019-03-18T01:33:46.525Z,4.57
2019-03-18T01:36:16.826Z,4.61
2019-03-18T01:38:46.534Z,4.64
2019-03-18T01:41:15.865Z,4.47
2019-03-18T01:43:45.300Z,4.64
2019-03-18T01:46:15.632Z,4.43
2019-03-18T01:48:57.041Z,4.44
2019-03-18T01:51:27.252Z,4.47
2019-03-18T01:54:00.739Z,4.57
2019-03-18T02:01:05.552Z,4.70
2019-03-18T02:06:58.321Z,4.87
2019-03-18T02:09:31.650Z,4.72
2019-03-18T02:12:02.750Z,4.57
2019-03-18T02:14:35.405Z,4.50
2019-03-18T02:17:09.844Z,4.64
2019-03-18T02:22:20.123Z,4.74
2019-03-18T02:24:52.163Z,4.75
2019-03-18T02:27:30.906Z,4.77
2019-03-18T02:30:03.683Z,4.81
2019-03-18T02:32:36.413Z,4.87
2019-03-18T02:35:16.763Z,4.90
2019-03-18T02:37:49.881Z,5.03
2019-03-18T02:40:29.710Z,4.86
2019-03-18T02:47:08.564Z,4.70
2019-03-18T02:49:42.156Z,4.88
2019-03-18T02:52:28.083Z,4.83
2019-03-18T02:55:59.716Z,4.77
2019-03-18T02:58:31.868Z,4.90
2019-03-18T03:01:02.132Z,4.97
2019-03-18T03:03:32.419Z,5.00
2019-03-18T03:21:54.226Z,4.95
2019-03-18T03:24:25.698Z,5.00
2019-03-18T03:26:56.406Z,5.01
2019-03-18T03:29:26.973Z,4.87
2019-03-18T03:31:56.716Z,4.89
2019-03-18T03:42:10.520Z,4.98
2019-03-18T03:44:39.934Z,4.94
2019-03-18T03:47:09.449Z,4.99
2019-03-18T03:53:32.987Z,5.06
2019-03-18T03:56:05.590Z,4.94
2019-03-18T03:58:35.816Z,4.90
2019-03-18T04:01:05.278Z,4.88
2019-03-18T04:03:38.525Z,4.94
2019-03-18T04:06:06.395Z,4.96
2019-03-18T04:08:35.920Z,5.07
2019-03-18T04:11:08.534Z,4.96
2019-03-18T04:13:37.744Z,5.03
2019-03-18T04:16:09.929Z,4.98
2019-03-18T04:18:39.282Z,4.96
2019-03-18T04:21:08.716Z,4.96
2019-03-18T04:23:38.114Z,4.96
2019-03-18T04:26:07.365Z,5.09
2019-03-18T04:28:36.679Z,5.18
2019-03-18T04:31:05.931Z,5.40
2019-03-18T04:33:52.940Z,5.35
2019-03-18T04:36:22.185Z,5.40
2019-03-18T04:38:51.885Z,5.42
2019-03-18T04:41:21.194Z,5.10
2019-03-18T04:43:51.756Z,5.13
2019-03-18T04:46:21.050Z,5.16
2019-03-18T04:48:50.584Z,5.14
2019-03-18T04:51:19.931Z,5.27
2019-03-18T04:53:49.214Z,5.12
2019-03-18T04:56:18.627Z,5.01
2019-03-18T04:58:48.039Z,5.13
2019-03-18T05:01:17.697Z,5.17
2019-03-18T05:03:50.510Z,5.21
2019-03-18T05:06:20.303Z,5.30
2019-03-18T05:08:49.846Z,5.31
2019-03-18T05:11:19.344Z,5.38
2019-03-18T05:13:48.840Z,5.39
2019-03-18T05:16:18.700Z,5.40
2019-03-18T05:25:52.459Z,5.24
2019-03-18T05:28:21.661Z,5.30
2019-03-18T05:30:50.919Z,5.35
2019-03-18T05:33:20.115Z,5.44
2019-03-18T05:35:49.963Z,5.44
2019-03-18T05:38:19.175Z,5.41
2019-03-18T05:40:48.425Z,5.41
2019-03-18T05:43:17.615Z,5.20
2019-03-18T05:45:46.887Z,5.39
2019-03-18T05:48:16.359Z,5.49
2019-03-18T05:50:46.072Z,5.60
2019-03-18T05:53:15.623Z,5.65
2019-03-18T05:55:44.888Z,5.75
2019-03-18T05:58:14.147Z,5.85
2019-03-18T06:00:43.430Z,5.89
2019-03-18T06:03:12.705Z,5.77
2019-03-18T06:05:42.235Z,5.70
2019-03-18T06:08:11.893Z,5.63
2019-03-18T06:10:41.283Z,5.67
2019-03-18T06:13:10.475Z,5.71
2019-03-18T06:15:39.728Z,5.48
2019-03-18T06:18:08.943Z,5.45
2019-03-18T06:20:38.197Z,5.45
2019-03-18T06:23:07.404Z,5.56
2019-03-18T06:25:36.659Z,5.55
2019-03-18T06:28:05.854Z,5.67
2019-03-18T06:30:35.106Z,5.72
2019-03-18T06:33:04.315Z,5.70
2019-03-18T06:35:33.576Z,5.76
2019-03-18T06:38:02.774Z,5.85
2019-03-18T06:40:32.057Z,5.87
2019-03-18T06:43:01.305Z,5.87
2019-03-18T06:45:30.779Z,5.82
2019-03-18T06:48:05.266Z,5.82
2019-03-18T06:50:31.449Z,5.96
2019-03-18T06:53:00.720Z,6.01
2019-03-18T06:55:29.985Z,5.85
2019-03-18T06:57:59.517Z,5.83
2019-03-18T07:00:28.752Z,5.78
2019-03-18T07:02:58.063Z,5.87
2019-03-18T07:05:27.280Z,5.85
2019-03-18T07:07:56.550Z,5.85
2019-03-18T07:10:25.765Z,5.87
2019-03-18T07:12:55.017Z,5.86
2019-03-18T07:15:24.300Z,5.89
2019-03-18T07:17:53.903Z,5.87
2019-03-18T07:20:23.113Z,5.90
2019-03-18T07:22:52.421Z,5.77
2019-03-18T07:25:21.637Z,5.73
2019-03-18T07:27:50.903Z,5.85
2019-03-18T07:30:20.215Z,5.67
2019-03-18T07:32:49.543Z,5.46
2019-03-18T07:35:18.750Z,5.32
2019-03-18T07:37:48.424Z,5.47
2019-03-18T07:40:17.619Z,5.60
2019-03-18T07:42:47.212Z,5.45
2019-03-18T07:45:16.583Z,5.45
2019-03-18T07:47:45.985Z,5.28
2019-03-18T07:50:15.601Z,5.36
2019-03-18T07:52:45.910Z,5.47
2019-03-18T07:55:15.493Z,5.50
2019-03-18T07:57:47.662Z,5.51
2019-03-18T08:00:17.041Z,5.50
2019-03-18T08:03:04.881Z,5.36
2019-03-18T08:05:38.446Z,5.23
2019-03-18T08:08:35.657Z,5.37
2019-03-18T08:11:04.940Z,5.29
2019-03-18T08:13:34.270Z,5.29
2019-03-18T08:16:03.725Z,5.22
2019-03-18T08:18:42.782Z,5.29
2019-03-18T08:21:07.058Z,5.26
2019-03-18T08:23:36.302Z,5.15
2019-03-18T08:26:05.509Z,5.08
2019-03-18T08:28:34.760Z,5.12
2019-03-18T08:31:04.080Z,4.95
2019-03-18T08:33:33.460Z,4.95
2019-03-18T08:36:02.666Z,4.95
2019-03-18T08:38:32.316Z,5.17
2019-03-18T08:41:01.598Z,5.06
2019-03-18T08:43:31.421Z,5.35
2019-03-18T08:46:01.227Z,5.24
2019-03-18T08:48:30.759Z,5.39
2019-03-18T08:51:00.009Z,5.34
2019-03-18T08:53:29.533Z,5.45
2019-03-18T08:55:59.023Z,5.37
2019-03-18T08:58:28.555Z,5.11
2019-03-18T09:00:57.766Z,5.31
2019-03-18T09:03:27.025Z,5.36
2019-03-18T09:05:56.233Z,5.29
2019-03-18T09:08:26.582Z,5.51
2019-03-18T09:10:55.910Z,5.66
2019-03-18T09:13:25.096Z,5.77
2019-03-18T09:15:54.349Z,5.87
2019-03-18T09:18:23.564Z,5.83
2019-03-18T09:20:53.096Z,5.75
2019-03-18T09:23:22.390Z,5.92
2019-03-18T09:25:52.355Z,5.75
2019-03-18T09:28:22.328Z,5.44
2019-03-18T09:30:51.615Z,5.11
2019-03-18T09:33:21.101Z,4.92
2019-03-18T09:35:50.352Z,4.94
2019-03-18T09:38:19.570Z,4.92
2019-03-18T09:40:48.830Z,4.99
2019-03-18T09:43:18.040Z,5.27
2019-03-18T09:45:47.307Z,5.52
2019-03-18T09:48:16.506Z,5.85
2019-03-18T09:50:45.758Z,5.92
2019-03-18T09:53:15.023Z,6.11
2019-03-18T09:55:44.276Z,6.35
2019-03-18T09:58:13.545Z,6.37
2019-03-18T10:00:42.839Z,6.23
2019-03-18T10:03:12.087Z,6.21
2019-03-18T10:05:43.851Z,6.19
2019-03-18T10:08:12.561Z,6.46
2019-03-18T10:10:41.842Z,6.70
2019-03-18T10:13:11.296Z,6.99
2019-03-18T10:15:40.552Z,7.15
2019-03-18T10:18:09.737Z,7.23
2019-03-18T10:20:39.240Z,7.22
2019-03-18T10:23:08.528Z,7.08
2019-03-18T10:25:38.335Z,6.94
2019-03-18T10:28:07.674Z,7.10
2019-03-18T10:30:37.170Z,7.61
2019-03-18T10:33:06.432Z,7.81
2019-03-18T10:35:35.656Z,7.92
2019-03-18T10:38:04.909Z,7.97
2019-03-18T10:40:34.114Z,7.68
2019-03-18T10:43:03.381Z,7.46
2019-03-18T10:45:32.578Z,7.37
2019-03-18T10:48:01.834Z,7.75
2019-03-18T10:50:38.594Z,7.97
2019-03-18T10:53:23.345Z,8.00
2019-03-18T10:55:52.547Z,7.81
2019-03-18T10:58:22.074Z,7.36
2019-03-18T11:00:51.371Z,7.10
2019-03-18T11:03:20.675Z,6.98
2019-03-18T11:05:50.183Z,6.87
2019-03-18T11:08:19.614Z,6.82
2019-03-18T11:10:48.985Z,6.73
2019-03-18T11:13:19.539Z,6.60
2019-03-18T11:15:49.049Z,6.34
2019-03-18T11:18:18.317Z,6.67
2019-03-18T11:20:47.574Z,6.58
2019-03-18T11:23:16.887Z,6.38
2019-03-18T11:25:47.090Z,6.58
2019-03-18T11:28:16.395Z,6.73
2019-03-18T11:30:45.805Z,6.69
2019-03-18T11:33:15.116Z,6.93
2019-03-18T11:35:44.704Z,6.85
2019-03-18T11:38:13.967Z,7.02
2019-03-18T11:40:43.289Z,7.09
2019-03-18T11:43:12.570Z,7.07
2019-03-18T11:45:41.847Z,6.89
2019-03-18T11:48:11.168Z,6.93
2019-03-18T11:50:41.621Z,7.07
2019-03-18T11:53:14.521Z,7.04
2019-03-18T11:55:58.877Z,7.02
2019-03-18T11:59:30.751Z,7.16
2019-03-18T12:02:46.290Z,7.15
2019-03-18T12:06:27.270Z,6.99
2019-03-18T12:23:42.055Z,6.52
2019-03-18T12:26:11.601Z,6.47
2019-03-18T12:28:40.825Z,6.47
2019-03-18T12:31:12.636Z,6.56
2019-03-18T12:33:41.910Z,6.85
2019-03-18T12:36:11.536Z,6.72
2019-03-18T12:38:41.074Z,7.04
2019-03-18T12:41:10.346Z,7.23
2019-03-18T12:43:39.836Z,7.47
2019-03-18T12:46:09.113Z,7.61
2019-03-18T12:48:38.413Z,7.67
2019-03-18T12:51:08.905Z,7.52
2019-03-18T12:53:38.514Z,7.36
2019-03-18T12:56:07.838Z,7.46
2019-03-18T12:58:37.040Z,7.78
2019-03-18T13:01:12.573Z,7.63
2019-03-18T13:03:37.730Z,7.79
2019-03-18T13:06:07.206Z,7.83
2019-03-18T13:08:36.560Z,7.93
2019-03-18T13:11:06.124Z,7.92
2019-03-18T13:13:35.494Z,7.50
2019-03-18T13:16:04.891Z,7.28
2019-03-18T13:18:34.155Z,7.36
2019-03-18T13:21:08.087Z,7.18
2019-03-18T13:23:34.587Z,7.22
2019-03-18T13:26:03.910Z,7.26
2019-03-18T13:28:33.118Z,7.11
2019-03-18T13:31:02.660Z,7.09
2019-03-18T13:33:31.957Z,7.12
2019-03-18T13:36:01.404Z,7.20
2019-03-18T13:38:30.667Z,7.38
2019-03-18T13:40:59.870Z,7.54
2019-03-18T13:43:29.125Z,7.59
2019-03-18T13:45:58.631Z,7.92
2019-03-18T13:48:28.002Z,7.84
2019-03-18T13:50:57.486Z,7.85
2019-03-18T13:53:26.877Z,7.60
2019-03-18T13:55:56.082Z,7.90
2019-03-18T13:58:25.772Z,8.06
2019-03-18T14:00:55.101Z,8.09
2019-03-18T14:03:24.433Z,8.07
2019-03-18T14:05:53.630Z,8.36
2019-03-18T14:08:22.876Z,8.06
2019-03-18T14:10:52.207Z,8.32
2019-03-18T14:13:21.482Z,8.91
2019-03-18T14:15:50.691Z,9.30
2019-03-18T14:18:19.944Z,9.45
2019-03-18T14:20:49.158Z,9.74
2019-03-18T14:23:18.413Z,9.68
2019-03-18T14:25:47.659Z,10.00
2019-03-18T14:28:17.330Z,9.87
2019-03-18T14:30:46.842Z,9.57
2019-03-18T14:33:16.123Z,8.89
2019-03-18T14:35:45.310Z,8.92
2019-03-18T14:38:14.575Z,8.77
2019-03-18T14:40:43.778Z,8.50
2019-03-18T14:43:13.036Z,8.48
2019-03-18T14:45:42.525Z,8.59
2019-03-18T14:48:11.903Z,8.42
2019-03-18T14:50:41.117Z,8.32
2019-03-18T14:53:10.452Z,8.35
2019-03-18T14:55:39.657Z,8.43
2019-03-18T14:58:08.905Z,8.57
2019-03-18T15:00:38.122Z,8.59
2019-03-18T15:03:07.399Z,9.25
2019-03-18T15:05:37.104Z,10.01
2019-03-18T15:08:07.641Z,10.35
2019-03-18T15:10:37.225Z,9.92
2019-03-18T15:13:07.425Z,9.40
2019-03-18T15:15:36.797Z,9.35
2019-03-18T15:18:06.036Z,9.66
2019-03-18T15:20:35.573Z,9.73
2019-03-18T15:23:04.777Z,9.82
2019-03-18T15:25:34.129Z,9.89
2019-03-18T15:28:03.417Z,9.40
2019-03-18T15:30:33.009Z,8.47
2019-03-18T15:33:02.493Z,7.97
2019-03-18T15:35:31.914Z,7.86
2019-03-18T15:38:01.121Z,7.72
2019-03-18T15:40:30.491Z,7.67
2019-03-18T15:43:00.007Z,7.58
2019-03-18T15:45:29.215Z,7.22
2019-03-18T15:47:58.487Z,6.90
2019-03-18T15:50:27.834Z,6.64
2019-03-18T15:52:57.152Z,6.26
2019-03-18T15:55:26.354Z,6.48
2019-03-18T15:57:55.615Z,6.33
2019-03-18T16:00:24.946Z,6.38
2019-03-18T16:02:54.213Z,6.35
2019-03-18T16:05:23.709Z,6.28
2019-03-18T16:07:58.871Z,6.22
2019-03-18T16:10:28.075Z,6.50
2019-03-18T16:12:57.635Z,6.66
2019-03-18T16:15:26.813Z,7.05
2019-03-18T16:17:56.100Z,9.06
2019-03-18T16:20:25.687Z,12.72
2019-03-18T16:22:54.963Z,14.95
2019-03-18T16:25:24.521Z,15.34
2019-03-18T16:27:54.063Z,15.49
2019-03-18T16:30:23.343Z,14.42
2019-03-18T16:32:52.678Z,11.37
2019-03-18T16:35:21.879Z,9.71
2019-03-18T16:37:51.431Z,8.57
2019-03-18T16:40:22.750Z,7.61
2019-03-18T16:42:52.368Z,7.07
2019-03-18T16:45:21.670Z,6.94
2019-03-18T16:47:51.510Z,6.67
2019-03-18T16:50:20.709Z,6.48
2019-03-18T16:52:50.210Z,6.12
2019-03-18T16:55:19.403Z,6.07
2019-03-18T16:57:48.988Z,6.14
2019-03-18T17:00:18.925Z,6.30
2019-03-18T17:02:48.332Z,6.34
2019-03-18T17:05:17.538Z,6.32
2019-03-18T17:07:47.074Z,6.25
2019-03-18T17:10:16.721Z,5.93
2019-03-18T17:12:45.998Z,5.81
2019-03-18T17:15:15.248Z,5.72
2019-03-18T17:17:44.504Z,5.78
2019-03-18T17:20:13.751Z,5.77
2019-03-18T17:22:49.516Z,5.56
2019-03-18T17:25:15.753Z,5.60
2019-03-18T17:27:45.336Z,5.42
2019-03-18T17:30:16.516Z,5.47
2019-03-18T17:32:46.095Z,5.45
2019-03-18T17:35:15.314Z,5.55
2019-03-18T17:37:44.701Z,5.58
2019-03-18T17:40:13.968Z,5.74
2019-03-18T17:42:44.278Z,5.47
2019-03-18T17:45:13.958Z,5.59
2019-03-18T17:47:43.546Z,5.28
2019-03-18T17:50:14.812Z,5.20
2019-03-18T17:52:44.269Z,5.24
2019-03-18T17:55:13.480Z,5.33
2019-03-18T17:57:42.800Z,5.14
2019-03-18T18:00:15.612Z,5.33
2019-03-18T18:02:44.885Z,5.38
2019-03-18T18:05:14.390Z,5.22
2019-03-18T18:07:43.721Z,5.47
2019-03-18T18:10:12.943Z,5.37
2019-03-18T18:12:42.230Z,5.24
2019-03-18T18:15:11.458Z,5.30
2019-03-18T18:17:40.719Z,5.13
2019-03-18T18:20:10.165Z,5.17
2019-03-18T18:22:41.007Z,5.16
2019-03-18T18:25:10.593Z,5.21
2019-03-18T18:27:39.956Z,5.17
2019-03-18T18:32:45.811Z,5.24
2019-03-18T18:35:15.962Z,5.14
2019-03-18T18:37:45.874Z,5.22
2019-03-18T18:40:15.183Z,5.24
2019-03-18T18:42:44.404Z,5.16
2019-03-18T18:45:13.679Z,5.24
2019-03-18T18:47:43.182Z,5.26
2019-03-18T18:50:13.260Z,5.33
2019-03-18T18:52:42.572Z,5.30
2019-03-18T18:55:12.087Z,5.33
2019-03-18T18:57:41.396Z,5.43
2019-03-18T19:00:12.807Z,5.40
2019-03-18T19:02:42.081Z,5.50
2019-03-18T19:05:11.592Z,5.58
2019-03-18T19:07:40.926Z,5.44
2019-03-18T19:10:10.739Z,5.41
2019-03-18T19:12:40.013Z,5.22
2019-03-18T19:15:12.243Z,5.31
2019-03-18T19:17:41.884Z,5.30
2019-03-18T19:20:11.380Z,5.37
2019-03-18T19:22:40.773Z,5.29
2019-03-18T19:25:11.214Z,5.39
2019-03-18T19:27:40.608Z,5.38
2019-03-18T19:30:13.258Z,5.34
2019-03-18T19:32:42.690Z,5.24
2019-03-18T19:35:12.004Z,5.20
2019-03-18T19:37:41.436Z,5.15
2019-03-18T19:40:11.998Z,4.87
2019-03-18T19:42:41.485Z,4.90
2019-03-18T19:45:11.860Z,4.80
2019-03-18T19:47:41.516Z,4.87
2019-03-18T19:50:13.544Z,4.89
2019-03-18T19:52:42.838Z,4.88
2019-03-18T19:55:12.115Z,4.98
2019-03-18T19:57:41.408Z,4.96
2019-03-18T20:00:13.484Z,4.85
2019-03-18T20:02:42.764Z,4.82
2019-03-18T20:05:15.398Z,4.97
2019-03-18T20:07:43.106Z,5.08
2019-03-18T20:10:12.513Z,5.05
2019-03-18T20:12:41.817Z,5.01
2019-03-18T20:15:12.442Z,5.07
2019-03-18T20:17:41.771Z,5.06
2019-03-18T20:20:12.237Z,5.14
2019-03-18T20:22:41.816Z,4.98
2019-03-18T20:25:11.158Z,4.79
2019-03-18T20:27:40.425Z,4.73
2019-03-18T20:30:11.889Z,4.88
2019-03-18T20:32:41.134Z,4.75
2019-03-18T20:35:10.956Z,4.89
2019-03-18T20:37:40.209Z,4.81
2019-03-18T20:40:11.047Z,4.76
2019-03-18T20:42:40.318Z,4.62
2019-03-18T20:45:11.350Z,4.53
2019-03-18T20:47:40.722Z,4.59
2019-03-18T20:50:11.267Z,4.57
2019-03-18T20:52:40.527Z,4.62
2019-03-18T20:55:10.663Z,4.73
2019-03-18T20:57:39.949Z,4.78
2019-03-18T21:00:10.147Z,4.56
2019-03-18T21:02:39.649Z,4.58
2019-03-18T21:05:09.365Z,4.57
2019-03-18T21:07:38.932Z,4.58
2019-03-18T21:10:08.635Z,4.61
2019-03-18T21:12:37.849Z,4.67
2019-03-18T21:15:07.822Z,4.76
2019-03-18T21:17:37.733Z,4.67
2019-03-18T21:20:09.367Z,4.71
2019-03-18T21:22:39.282Z,4.69
2019-03-18T21:25:08.566Z,4.70
2019-03-18T21:27:37.762Z,4.65
2019-03-18T21:30:07.433Z,4.74
2019-03-18T21:32:36.984Z,4.79
2019-03-18T21:35:06.502Z,4.89
2019-03-18T21:37:36.307Z,5.00
2019-03-18T21:40:06.773Z,4.95
2019-03-18T21:42:36.474Z,4.89
2019-03-18T21:45:06.029Z,4.70
2019-03-18T21:47:35.624Z,4.76
2019-03-18T21:50:05.443Z,4.80
2019-03-18T21:52:34.823Z,4.87
2019-03-18T21:55:04.305Z,4.89
2019-03-18T21:57:33.552Z,4.95
2019-03-18T22:00:02.767Z,4.99
2019-03-18T22:02:32.295Z,4.99
2019-03-18T22:05:01.498Z,5.01
2019-03-18T22:07:30.751Z,4.95
2019-03-18T22:09:59.975Z,4.95
2019-03-18T22:12:29.245Z,4.96
2019-03-18T22:14:58.727Z,5.17
2019-03-18T22:17:28.012Z,5.09
2019-03-18T22:19:57.331Z,5.09
2019-03-18T22:22:26.613Z,5.06
2019-03-18T22:24:55.915Z,5.07
2019-03-18T22:27:28.371Z,5.20
2019-03-18T22:29:58.129Z,4.92
2019-03-18T22:32:27.424Z,4.80
2019-03-18T22:34:56.693Z,4.75
2019-03-18T22:37:26.218Z,4.76
2019-03-18T22:39:55.435Z,4.82
2019-03-18T22:42:24.711Z,4.77
2019-03-18T22:44:54.224Z,4.74
2019-03-18T22:47:23.483Z,4.69
2019-03-18T22:49:52.678Z,4.71
2019-03-18T22:52:21.951Z,4.69
2019-03-18T22:54:55.952Z,4.76
2019-03-18T22:57:22.357Z,4.73
2019-03-18T22:59:51.593Z,4.77
2019-03-18T23:02:20.848Z,4.84
2019-03-18T23:04:50.050Z,5.05
2019-03-18T23:07:19.307Z,5.12
2019-03-18T23:09:48.534Z,4.94
2019-03-18T23:12:17.724Z,4.90
2019-03-18T23:14:46.996Z,4.96
2019-03-18T23:17:16.261Z,4.94
2019-03-18T23:19:45.499Z,4.96
2019-03-18T23:22:14.718Z,4.87
2019-03-18T23:27:18.732Z,4.73
2019-03-18T23:29:48.419Z,4.60
2019-03-18T23:32:17.619Z,4.62
2019-03-18T23:34:47.224Z,4.51
2019-03-18T23:37:16.446Z,4.44
2019-03-18T23:39:45.765Z,4.45
2019-03-18T23:42:14.992Z,4.43
2019-03-18T23:44:44.451Z,4.38
2019-03-18T23:47:13.648Z,4.21
2019-03-18T23:49:42.906Z,4.30
2019-03-18T23:52:12.242Z,4.37
2019-03-18T23:54:41.769Z,4.29
2019-03-18T23:57:11.317Z,4.16
2019-03-18T23:59:43.133Z,4.13
